createdAt,value
2018-11-07T00:00:50.219Z,931.51
2018-11-07T00:01:50.172Z,931.52
2018-11-07T00:02:50.157Z,931.55
2018-11-07T00:03:50.079Z,931.58
2018-11-07T00:04:50.026Z,931.57
2018-11-07T00:05:50.078Z,931.60
2018-11-07T00:06:49.935Z,931.59
2018-11-07T00:07:49.980Z,931.64
2018-11-07T00:08:49.837Z,931.69
2018-11-07T00:09:49.792Z,931.73
2018-11-07T00:10:49.742Z,931.70
2018-11-07T00:11:49.797Z,931.70
2018-11-07T00:12:49.647Z,931.64
2018-11-07T00:13:49.600Z,931.67
2018-11-07T00:14:49.552Z,931.68
2018-11-07T00:15:49.503Z,931.74
2018-11-07T00:16:49.455Z,931.74
2018-11-07T00:17:49.509Z,931.70
2018-11-07T00:18:49.360Z,931.69
2018-11-07T00:19:49.321Z,931.73
2018-11-07T00:20:49.267Z,931.75
2018-11-07T00:21:49.217Z,931.81
2018-11-07T00:22:49.181Z,931.80
2018-11-07T00:23:49.224Z,931.76
2018-11-07T00:24:49.077Z,931.81
2018-11-07T00:25:49.027Z,931.78
2018-11-07T00:26:48.980Z,931.75
2018-11-07T00:27:48.932Z,931.79
2018-11-07T00:28:48.885Z,931.81
2018-11-07T00:29:48.942Z,931.82
2018-11-07T00:30:48.790Z,931.83
2018-11-07T00:31:48.744Z,931.86
2018-11-07T00:32:48.700Z,931.87
2018-11-07T00:33:48.650Z,931.91
2018-11-07T00:34:48.600Z,931.91
2018-11-07T00:35:48.655Z,931.95
2018-11-07T00:36:48.508Z,931.98
2018-11-07T00:37:48.462Z,932.05
2018-11-07T00:38:48.412Z,932.04
2018-11-07T00:39:48.362Z,932.00
2018-11-07T00:40:48.319Z,931.97
2018-11-07T00:41:48.369Z,932.02
2018-11-07T00:42:48.226Z,932.03
2018-11-07T00:43:48.178Z,932.06
2018-11-07T00:44:48.127Z,932.07
2018-11-07T00:45:48.078Z,932.09
2018-11-07T00:46:48.030Z,932.10
2018-11-07T00:47:48.088Z,932.08
2018-11-07T00:48:47.935Z,932.08
2018-11-07T00:49:47.888Z,932.09
2018-11-07T00:50:47.858Z,932.15
2018-11-07T00:51:47.793Z,932.15
2018-11-07T00:52:47.749Z,932.17
2018-11-07T00:53:47.805Z,932.15
2018-11-07T00:54:47.653Z,932.17
2018-11-07T00:55:47.604Z,932.15
2018-11-07T00:56:47.561Z,932.12
2018-11-07T00:57:47.571Z,932.12
2018-11-07T00:58:47.464Z,932.13
2018-11-07T00:59:47.513Z,932.13
2018-11-07T01:00:47.371Z,932.10
2018-11-07T01:01:47.324Z,932.10
2018-11-07T01:02:47.275Z,932.14
2018-11-07T01:03:47.222Z,932.11
2018-11-07T01:04:47.176Z,932.12
2018-11-07T01:05:47.230Z,932.16
2018-11-07T01:06:47.080Z,932.14
2018-11-07T01:07:47.039Z,932.15
2018-11-07T01:08:46.990Z,932.14
2018-11-07T01:09:46.943Z,932.15
2018-11-07T01:10:46.892Z,932.15
2018-11-07T01:11:46.943Z,932.22
2018-11-07T01:12:46.798Z,932.19
2018-11-07T01:13:46.753Z,932.20
2018-11-07T01:14:46.704Z,932.21
2018-11-07T01:15:46.655Z,932.20
2018-11-07T01:16:46.652Z,932.24
2018-11-07T01:17:46.660Z,932.22
2018-11-07T01:18:46.516Z,932.20
2018-11-07T01:19:46.470Z,932.24
2018-11-07T01:20:46.418Z,932.24
2018-11-07T01:21:46.371Z,932.22
2018-11-07T01:22:46.324Z,932.27
2018-11-07T01:23:46.379Z,932.21
2018-11-07T01:24:46.226Z,932.25
2018-11-07T01:25:46.178Z,932.22
2018-11-07T01:26:46.131Z,932.20
2018-11-07T01:27:46.088Z,932.22
2018-11-07T01:28:46.041Z,932.25
2018-11-07T01:29:46.091Z,932.26
2018-11-07T01:30:45.946Z,932.27
2018-11-07T01:31:45.899Z,932.25
2018-11-07T01:32:45.848Z,932.25
2018-11-07T01:33:45.799Z,932.26
2018-11-07T01:34:45.752Z,932.24
2018-11-07T01:35:45.806Z,932.28
2018-11-07T01:36:45.657Z,932.25
2018-11-07T01:37:45.611Z,932.21
2018-11-07T01:38:45.566Z,932.18
2018-11-07T01:39:45.515Z,932.15
2018-11-07T01:40:45.472Z,932.17
2018-11-07T01:41:45.561Z,932.08
2018-11-07T01:42:45.373Z,932.14
2018-11-07T01:43:45.330Z,932.08
2018-11-07T01:44:45.280Z,932.05
2018-11-07T01:45:45.235Z,932.05
2018-11-07T01:46:45.183Z,932.01
2018-11-07T01:47:45.242Z,932.09
2018-11-07T01:48:45.094Z,932.05
2018-11-07T01:49:45.045Z,932.07
2018-11-07T01:50:44.996Z,932.06
2018-11-07T01:51:44.946Z,932.06
2018-11-07T01:52:44.902Z,932.09
2018-11-07T01:53:44.953Z,932.02
2018-11-07T01:54:44.806Z,932.02
2018-11-07T01:55:44.758Z,932.01
2018-11-07T01:56:44.712Z,931.98
2018-11-07T01:57:44.666Z,931.94
2018-11-07T01:58:44.614Z,931.93
2018-11-07T01:59:44.669Z,931.91
2018-11-07T02:00:44.525Z,931.91
2018-11-07T02:01:44.475Z,931.92
2018-11-07T02:02:44.426Z,931.92
2018-11-07T02:03:44.377Z,931.92
2018-11-07T02:04:44.330Z,931.88
2018-11-07T02:05:44.388Z,931.89
2018-11-07T02:06:44.234Z,931.87
2018-11-07T02:07:44.186Z,931.83
2018-11-07T02:08:44.141Z,931.84
2018-11-07T02:09:44.093Z,931.87
2018-11-07T02:10:44.048Z,931.86
2018-11-07T02:11:44.099Z,931.87
2018-11-07T02:12:43.951Z,931.85
2018-11-07T02:13:43.904Z,931.83
2018-11-07T02:14:43.859Z,931.84
2018-11-07T02:15:43.809Z,931.80
2018-11-07T02:16:43.760Z,931.78
2018-11-07T02:17:43.817Z,931.78
2018-11-07T02:18:43.670Z,931.75
2018-11-07T02:19:43.619Z,931.75
2018-11-07T02:20:43.572Z,931.77
2018-11-07T02:21:43.524Z,931.74
2018-11-07T02:22:43.477Z,931.73
2018-11-07T02:23:43.528Z,931.72
2018-11-07T02:24:43.380Z,931.74
2018-11-07T02:25:43.337Z,931.73
2018-11-07T02:26:43.290Z,931.71
2018-11-07T02:27:43.242Z,931.66
2018-11-07T02:28:43.196Z,931.68
2018-11-07T02:29:43.243Z,931.66
2018-11-07T02:30:43.100Z,931.63
2018-11-07T02:31:43.051Z,931.57
2018-11-07T02:32:43.010Z,931.55
2018-11-07T02:33:42.955Z,931.56
2018-11-07T02:34:42.908Z,931.53
2018-11-07T02:35:42.959Z,931.53
2018-11-07T02:36:42.832Z,931.48
2018-11-07T02:37:42.769Z,931.48
2018-11-07T02:38:42.717Z,931.48
2018-11-07T02:39:42.671Z,931.45
2018-11-07T02:40:42.622Z,931.43
2018-11-07T02:41:42.713Z,931.39
2018-11-07T02:42:42.535Z,931.41
2018-11-07T02:43:42.479Z,931.41
2018-11-07T02:44:42.439Z,931.36
2018-11-07T02:45:42.385Z,931.37
2018-11-07T02:46:42.342Z,931.32
2018-11-07T02:47:42.392Z,931.28
2018-11-07T02:48:42.249Z,931.30
2018-11-07T02:49:42.200Z,931.31
2018-11-07T02:50:42.151Z,931.33
2018-11-07T02:51:42.106Z,931.29
2018-11-07T02:52:42.059Z,931.33
2018-11-07T02:53:42.117Z,931.32
2018-11-07T02:54:41.965Z,931.28
2018-11-07T02:55:41.912Z,931.28
2018-11-07T02:56:41.866Z,931.29
2018-11-07T02:57:41.821Z,931.25
2018-11-07T02:58:41.793Z,931.23
2018-11-07T02:59:41.825Z,931.18
2018-11-07T03:00:41.678Z,931.19
2018-11-07T03:01:41.631Z,931.17
2018-11-07T03:02:41.595Z,931.20
2018-11-07T03:03:41.539Z,931.20
2018-11-07T03:04:41.487Z,931.22
2018-11-07T03:05:41.545Z,931.24
2018-11-07T03:06:41.394Z,931.21
2018-11-07T03:07:41.349Z,931.19
2018-11-07T03:08:41.299Z,931.15
2018-11-07T03:09:41.256Z,931.18
2018-11-07T03:10:41.261Z,931.14
2018-11-07T03:11:41.267Z,931.13
2018-11-07T03:12:41.108Z,931.13
2018-11-07T03:13:41.061Z,931.08
2018-11-07T03:14:41.019Z,931.06
2018-11-07T03:15:40.966Z,931.05
2018-11-07T03:16:40.922Z,931.02
2018-11-07T03:17:40.979Z,931.03
2018-11-07T03:18:40.829Z,931.00
2018-11-07T03:19:40.780Z,930.98
2018-11-07T03:20:40.732Z,931.02
2018-11-07T03:21:40.688Z,931.01
2018-11-07T03:22:40.643Z,930.99
2018-11-07T03:23:40.691Z,930.95
2018-11-07T03:24:40.543Z,930.94
2018-11-07T03:25:40.498Z,930.97
2018-11-07T03:26:40.446Z,930.95
2018-11-07T03:27:40.402Z,930.96
2018-11-07T03:28:40.365Z,930.96
2018-11-07T03:29:40.410Z,931.00
2018-11-07T03:30:40.264Z,930.96
2018-11-07T03:31:40.216Z,930.93
2018-11-07T03:32:40.201Z,930.91
2018-11-07T03:33:40.121Z,930.90
2018-11-07T03:34:40.069Z,930.92
2018-11-07T03:35:40.123Z,930.90
2018-11-07T03:36:39.974Z,930.84
2018-11-07T03:37:39.929Z,930.82
2018-11-07T03:38:39.887Z,930.76
2018-11-07T03:39:39.874Z,930.79
2018-11-07T03:40:39.790Z,930.81
2018-11-07T03:41:39.842Z,930.84
2018-11-07T03:42:39.691Z,930.83
2018-11-07T03:43:39.645Z,930.79
2018-11-07T03:44:39.600Z,930.79
2018-11-07T03:45:39.551Z,930.79
2018-11-07T03:46:39.506Z,930.74
2018-11-07T03:47:39.554Z,930.78
2018-11-07T03:48:39.408Z,930.75
2018-11-07T03:49:39.360Z,930.71
2018-11-07T03:50:39.312Z,930.73
2018-11-07T03:51:39.267Z,930.69
2018-11-07T03:52:39.225Z,930.69
2018-11-07T03:53:39.278Z,930.69
2018-11-07T03:54:39.129Z,930.66
2018-11-07T03:55:39.078Z,930.63
2018-11-07T03:56:39.035Z,930.63
2018-11-07T03:57:38.981Z,930.64
2018-11-07T03:58:38.948Z,930.60
2018-11-07T03:59:38.992Z,930.58
2018-11-07T04:00:38.844Z,930.58
2018-11-07T04:01:38.793Z,930.58
2018-11-07T04:02:39.252Z,930.62
2018-11-07T04:03:38.700Z,930.62
2018-11-07T04:04:38.651Z,930.64
2018-11-07T04:05:38.710Z,930.63
2018-11-07T04:06:38.559Z,930.64
2018-11-07T04:07:38.515Z,930.61
2018-11-07T04:08:38.462Z,930.64
2018-11-07T04:09:38.417Z,930.64
2018-11-07T04:10:38.369Z,930.62
2018-11-07T04:11:38.421Z,930.61
2018-11-07T04:12:38.277Z,930.59
2018-11-07T04:13:38.232Z,930.57
2018-11-07T04:14:38.182Z,930.55
2018-11-07T04:15:38.136Z,930.54
2018-11-07T04:16:38.087Z,930.51
2018-11-07T04:17:38.143Z,930.51
2018-11-07T04:18:37.995Z,930.50
2018-11-07T04:19:37.951Z,930.52
2018-11-07T04:20:39.099Z,930.51
2018-11-07T04:21:37.851Z,930.50
2018-11-07T04:22:37.802Z,930.48
2018-11-07T04:23:37.865Z,930.50
2018-11-07T04:24:38.203Z,930.43
2018-11-07T04:25:37.669Z,930.45
2018-11-07T04:26:37.615Z,930.37
2018-11-07T04:27:37.567Z,930.36
2018-11-07T04:28:37.520Z,930.32
2018-11-07T04:29:37.573Z,930.31
2018-11-07T04:30:37.426Z,930.28
2018-11-07T04:31:37.382Z,930.27
2018-11-07T04:32:37.332Z,930.27
2018-11-07T04:33:37.291Z,930.27
2018-11-07T04:34:37.240Z,930.24
2018-11-07T04:35:37.293Z,930.24
2018-11-07T04:36:37.147Z,930.22
2018-11-07T04:37:37.098Z,930.20
2018-11-07T04:38:37.053Z,930.15
2018-11-07T04:39:37.004Z,930.16
2018-11-07T04:40:36.958Z,930.11
2018-11-07T04:41:37.014Z,930.12
2018-11-07T04:42:36.867Z,930.12
2018-11-07T04:43:36.818Z,930.05
2018-11-07T04:44:36.768Z,930.10
2018-11-07T04:45:36.722Z,930.05
2018-11-07T04:46:36.676Z,930.05
2018-11-07T04:47:36.730Z,930.08
2018-11-07T04:48:36.580Z,930.12
2018-11-07T04:49:36.534Z,930.14
2018-11-07T04:50:36.487Z,930.18
2018-11-07T04:51:36.453Z,930.16
2018-11-07T04:52:36.445Z,930.16
2018-11-07T04:53:36.951Z,930.19
2018-11-07T04:54:36.298Z,930.13
2018-11-07T04:55:37.154Z,930.14
2018-11-07T04:56:36.206Z,930.11
2018-11-07T04:57:36.653Z,930.13
2018-11-07T04:58:36.110Z,930.12
2018-11-07T04:59:36.168Z,930.13
2018-11-07T05:00:36.521Z,930.12
2018-11-07T05:01:35.973Z,930.10
2018-11-07T05:02:36.328Z,930.11
2018-11-07T05:03:35.875Z,930.13
2018-11-07T05:04:36.331Z,930.12
2018-11-07T05:05:35.886Z,930.11
2018-11-07T05:06:36.231Z,930.12
2018-11-07T05:07:35.687Z,930.11
2018-11-07T05:09:35.593Z,930.09
2018-11-07T05:10:35.650Z,930.09
2018-11-07T05:11:36.002Z,930.05
2018-11-07T05:12:35.951Z,930.09
2018-11-07T05:13:35.406Z,930.11
2018-11-07T05:14:35.360Z,930.12
2018-11-07T05:15:35.818Z,930.15
2018-11-07T05:16:35.366Z,930.09
2018-11-07T05:17:35.222Z,930.08
2018-11-07T05:18:35.184Z,930.06
2018-11-07T05:19:35.127Z,930.03
2018-11-07T05:20:35.080Z,930.03
2018-11-07T05:21:35.033Z,930.10
2018-11-07T05:22:35.581Z,930.06
2018-11-07T05:23:34.937Z,930.04
2018-11-07T05:24:34.888Z,930.04
2018-11-07T05:25:35.337Z,930.05
2018-11-07T05:26:34.794Z,930.02
2018-11-07T05:27:35.245Z,930.05
2018-11-07T05:28:35.301Z,930.08
2018-11-07T05:29:35.156Z,930.10
2018-11-07T05:30:34.611Z,930.09
2018-11-07T05:31:34.563Z,930.05
2018-11-07T05:32:34.513Z,930.05
2018-11-07T05:33:34.968Z,930.07
2018-11-07T05:34:35.015Z,930.02
2018-11-07T05:35:34.372Z,930.02
2018-11-07T05:36:34.324Z,930.04
2018-11-07T05:37:34.278Z,930.04
2018-11-07T05:38:34.735Z,930.03
2018-11-07T05:39:34.188Z,930.03
2018-11-07T05:40:34.933Z,929.99
2018-11-07T05:41:34.090Z,930.02
2018-11-07T05:42:34.043Z,930.00
2018-11-07T05:43:33.996Z,929.96
2018-11-07T05:44:33.947Z,929.96
2018-11-07T05:45:34.405Z,929.95
2018-11-07T05:46:34.457Z,930.00
2018-11-07T05:47:33.808Z,929.93
2018-11-07T05:48:33.786Z,929.93
2018-11-07T05:49:33.713Z,929.90
2018-11-07T05:50:33.664Z,929.92
2018-11-07T05:51:33.620Z,929.91
2018-11-07T05:52:34.176Z,929.92
2018-11-07T05:53:33.527Z,929.91
2018-11-07T05:54:33.477Z,929.85
2018-11-07T05:55:33.433Z,929.80
2018-11-07T05:56:33.395Z,929.79
2018-11-07T05:57:33.340Z,929.74
2018-11-07T05:58:33.890Z,929.74
2018-11-07T05:59:33.243Z,929.78
2018-11-07T06:00:33.201Z,929.76
2018-11-07T06:01:33.150Z,929.77
2018-11-07T06:02:33.103Z,929.80
2018-11-07T06:03:33.056Z,929.81
2018-11-07T06:04:33.109Z,929.81
2018-11-07T06:05:32.960Z,929.84
2018-11-07T06:06:32.916Z,929.78
2018-11-07T06:07:32.868Z,929.85
2018-11-07T06:08:32.821Z,929.88
2018-11-07T06:09:32.771Z,929.88
2018-11-07T06:10:32.823Z,929.92
2018-11-07T06:11:32.683Z,929.92
2018-11-07T06:12:32.630Z,929.95
2018-11-07T06:13:32.583Z,929.89
2018-11-07T06:14:32.539Z,929.89
2018-11-07T06:15:32.490Z,929.94
2018-11-07T06:16:32.542Z,929.92
2018-11-07T06:17:32.394Z,929.94
2018-11-07T06:18:32.347Z,929.91
2018-11-07T06:19:32.301Z,929.96
2018-11-07T06:20:32.253Z,929.96
2018-11-07T06:21:32.204Z,929.97
2018-11-07T06:22:32.260Z,929.96
2018-11-07T06:23:32.111Z,929.96
2018-11-07T06:24:32.137Z,929.99
2018-11-07T06:25:32.019Z,930.00
2018-11-07T06:26:31.967Z,930.01
2018-11-07T06:27:31.920Z,930.02
2018-11-07T06:28:31.975Z,930.01
2018-11-07T06:29:31.832Z,930.01
2018-11-07T06:30:31.780Z,930.05
2018-11-07T06:31:31.735Z,930.09
2018-11-07T06:32:31.684Z,930.04
2018-11-07T06:33:31.639Z,930.03
2018-11-07T06:34:31.692Z,930.13
2018-11-07T06:35:31.545Z,930.10
2018-11-07T06:36:31.497Z,930.11
2018-11-07T06:37:31.455Z,930.09
2018-11-07T06:38:31.405Z,930.13
2018-11-07T06:39:31.354Z,930.16
2018-11-07T06:40:31.411Z,930.16
2018-11-07T06:41:31.261Z,930.11
2018-11-07T06:42:31.212Z,930.08
2018-11-07T06:43:31.170Z,930.08
2018-11-07T06:44:31.181Z,930.09
2018-11-07T06:45:31.072Z,930.11
2018-11-07T06:46:31.128Z,930.10
2018-11-07T06:47:30.981Z,930.13
2018-11-07T06:48:30.934Z,930.09
2018-11-07T06:49:30.884Z,930.11
2018-11-07T06:50:30.835Z,930.10
2018-11-07T06:51:30.792Z,930.08
2018-11-07T06:52:30.840Z,930.06
2018-11-07T06:53:30.697Z,930.06
2018-11-07T06:54:30.652Z,930.12
2018-11-07T06:55:30.669Z,930.11
2018-11-07T06:56:30.551Z,930.13
2018-11-07T06:57:30.506Z,930.12
2018-11-07T06:58:30.561Z,930.14
2018-11-07T06:59:30.412Z,930.11
2018-11-07T07:00:30.364Z,930.14
2018-11-07T07:01:30.361Z,930.12
2018-11-07T07:02:30.270Z,930.12
2018-11-07T07:03:30.220Z,930.15
2018-11-07T07:04:30.273Z,930.11
2018-11-07T07:05:30.126Z,930.14
2018-11-07T07:06:30.078Z,930.10
2018-11-07T07:07:30.033Z,930.15
2018-11-07T07:08:29.984Z,930.17
2018-11-07T07:09:29.938Z,930.15
2018-11-07T07:10:29.994Z,930.18
2018-11-07T07:11:29.843Z,930.20
2018-11-07T07:12:29.800Z,930.15
2018-11-07T07:13:29.799Z,930.17
2018-11-07T07:14:29.703Z,930.17
2018-11-07T07:15:29.653Z,930.20
2018-11-07T07:16:29.709Z,930.20
2018-11-07T07:17:29.615Z,930.15
2018-11-07T07:18:29.511Z,930.20
2018-11-07T07:19:29.468Z,930.16
2018-11-07T07:20:29.419Z,930.17
2018-11-07T07:21:29.369Z,930.18
2018-11-07T07:22:29.423Z,930.21
2018-11-07T07:23:29.276Z,930.18
2018-11-07T07:24:29.228Z,930.19
2018-11-07T07:25:29.207Z,930.16
2018-11-07T07:26:29.133Z,930.11
2018-11-07T07:27:29.088Z,930.13
2018-11-07T07:28:33.357Z,930.07
2018-11-07T07:29:28.991Z,930.13
2018-11-07T07:30:29.080Z,930.16
2018-11-07T07:31:28.904Z,930.18
2018-11-07T07:32:28.849Z,930.17
2018-11-07T07:33:29.069Z,930.16
2018-11-07T07:34:28.756Z,930.18
2018-11-07T07:35:28.709Z,930.13
2018-11-07T07:36:28.662Z,930.16
2018-11-07T07:37:28.612Z,930.10
2018-11-07T07:38:28.565Z,930.06
2018-11-07T07:39:28.773Z,930.08
2018-11-07T07:40:28.476Z,930.10
2018-11-07T07:41:28.425Z,930.15
2018-11-07T07:42:28.376Z,930.16
2018-11-07T07:43:28.329Z,930.11
2018-11-07T07:44:28.281Z,930.18
2018-11-07T07:45:28.498Z,930.19
2018-11-07T07:46:28.188Z,930.18
2018-11-07T07:47:28.144Z,930.22
2018-11-07T07:48:28.099Z,930.22
2018-11-07T07:49:28.139Z,930.29
2018-11-07T07:50:28.000Z,930.25
2018-11-07T07:51:28.201Z,930.22
2018-11-07T07:52:27.923Z,930.24
2018-11-07T07:53:27.860Z,930.26
2018-11-07T07:54:27.813Z,930.27
2018-11-07T07:55:27.762Z,930.31
2018-11-07T07:56:27.720Z,930.27
2018-11-07T07:57:27.767Z,930.33
2018-11-07T07:58:27.624Z,930.30
2018-11-07T07:59:27.577Z,930.36
2018-11-07T08:00:27.527Z,930.35
2018-11-07T08:01:27.482Z,930.35
2018-11-07T08:02:27.432Z,930.39
2018-11-07T08:03:27.684Z,930.41
2018-11-07T08:04:27.342Z,930.38
2018-11-07T08:05:27.291Z,930.43
2018-11-07T08:06:27.242Z,930.40
2018-11-07T08:07:27.200Z,930.41
2018-11-07T08:08:27.149Z,930.44
2018-11-07T08:09:27.401Z,930.46
2018-11-07T08:10:27.053Z,930.47
2018-11-07T08:11:27.008Z,930.52
2018-11-07T08:12:26.958Z,930.53
2018-11-07T08:13:26.971Z,930.55
2018-11-07T08:14:26.866Z,930.52
2018-11-07T08:15:27.118Z,930.52
2018-11-07T08:16:26.771Z,930.51
2018-11-07T08:17:26.722Z,930.45
2018-11-07T08:18:26.681Z,930.46
2018-11-07T08:19:26.633Z,930.52
2018-11-07T08:20:26.583Z,930.52
2018-11-07T08:21:26.871Z,930.50
2018-11-07T08:22:26.488Z,930.49
2018-11-07T08:23:26.443Z,930.45
2018-11-07T08:24:26.399Z,930.47
2018-11-07T08:25:26.347Z,930.44
2018-11-07T08:26:26.299Z,930.47
2018-11-07T08:27:26.501Z,930.43
2018-11-07T08:28:26.203Z,930.47
2018-11-07T08:29:26.161Z,930.47
2018-11-07T08:30:26.110Z,930.48
2018-11-07T08:31:26.061Z,930.42
2018-11-07T08:32:26.268Z,930.42
2018-11-07T08:33:25.972Z,930.49
2018-11-07T08:34:25.920Z,930.50
2018-11-07T08:35:25.877Z,930.57
2018-11-07T08:36:25.832Z,930.59
2018-11-07T08:37:25.778Z,930.61
2018-11-07T08:38:25.981Z,930.62
2018-11-07T08:39:25.686Z,930.64
2018-11-07T08:40:25.641Z,930.67
2018-11-07T08:41:25.591Z,930.70
2018-11-07T08:42:25.598Z,930.77
2018-11-07T08:43:25.495Z,930.73
2018-11-07T08:44:25.754Z,930.81
2018-11-07T08:45:25.405Z,930.83
2018-11-07T08:46:25.355Z,930.80
2018-11-07T08:47:25.310Z,930.86
2018-11-07T08:48:25.273Z,930.87
2018-11-07T08:49:25.215Z,930.86
2018-11-07T08:50:25.468Z,930.90
2018-11-07T08:51:25.123Z,930.94
2018-11-07T08:52:25.072Z,930.97
2018-11-07T08:53:25.028Z,930.96
2018-11-07T08:54:24.982Z,931.04
2018-11-07T08:55:24.946Z,931.03
2018-11-07T08:56:25.135Z,931.02
2018-11-07T08:57:24.840Z,931.03
2018-11-07T08:58:24.790Z,931.05
2018-11-07T08:59:24.748Z,931.12
2018-11-07T09:00:24.699Z,931.08
2018-11-07T09:01:24.760Z,931.13
2018-11-07T09:02:24.852Z,931.16
2018-11-07T09:03:24.558Z,931.19
2018-11-07T09:04:24.506Z,931.24
2018-11-07T09:05:24.461Z,931.26
2018-11-07T09:06:24.420Z,931.28
2018-11-07T09:07:24.370Z,931.32
2018-11-07T09:08:24.620Z,931.33
2018-11-07T09:09:24.280Z,931.33
2018-11-07T09:10:24.226Z,931.34
2018-11-07T09:11:24.178Z,931.39
2018-11-07T09:12:24.130Z,931.35
2018-11-07T09:13:24.083Z,931.37
2018-11-07T09:14:24.286Z,931.35
2018-11-07T09:15:23.998Z,931.38
2018-11-07T09:16:23.894Z,931.43
2018-11-07T09:17:23.895Z,931.44
2018-11-07T09:18:23.849Z,931.45
2018-11-07T09:19:23.800Z,931.46
2018-11-07T09:20:24.006Z,931.52
2018-11-07T09:21:23.710Z,931.52
2018-11-07T09:22:23.662Z,931.49
2018-11-07T09:23:23.612Z,931.49
2018-11-07T09:24:23.589Z,931.53
2018-11-07T09:25:23.522Z,931.49
2018-11-07T09:26:23.784Z,931.56
2018-11-07T09:27:23.428Z,931.57
2018-11-07T09:28:23.379Z,931.58
2018-11-07T09:29:23.429Z,931.59
2018-11-07T09:30:23.284Z,931.66
2018-11-07T09:31:23.235Z,931.61
2018-11-07T09:32:23.506Z,931.62
2018-11-07T09:33:23.150Z,931.65
2018-11-07T09:34:23.094Z,931.63
2018-11-07T09:35:23.150Z,931.68
2018-11-07T09:36:23.007Z,931.65
2018-11-07T09:37:22.953Z,931.70
2018-11-07T09:38:23.210Z,931.68
2018-11-07T09:39:22.862Z,931.67
2018-11-07T09:40:22.813Z,931.68
2018-11-07T09:41:22.771Z,931.69
2018-11-07T09:42:22.730Z,931.69
2018-11-07T09:43:22.672Z,931.72
2018-11-07T09:44:22.928Z,931.74
2018-11-07T09:45:22.581Z,931.78
2018-11-07T09:46:22.533Z,931.72
2018-11-07T09:47:22.522Z,931.78
2018-11-07T09:48:22.523Z,931.78
2018-11-07T09:49:22.396Z,931.80
2018-11-07T09:50:22.594Z,931.82
2018-11-07T09:51:22.297Z,931.79
2018-11-07T09:52:22.251Z,931.88
2018-11-07T09:53:22.205Z,931.91
2018-11-07T09:54:22.204Z,931.88
2018-11-07T09:55:22.608Z,931.93
2018-11-07T09:56:22.363Z,931.95
2018-11-07T09:57:22.027Z,931.96
2018-11-07T09:58:21.969Z,932.01
2018-11-07T09:59:21.945Z,932.01
2018-11-07T10:00:21.878Z,932.05
2018-11-07T10:01:21.834Z,932.07
2018-11-07T10:02:22.041Z,932.08
2018-11-07T10:03:21.738Z,932.12
2018-11-07T10:04:21.693Z,932.09
2018-11-07T10:05:21.692Z,932.06
2018-11-07T10:06:21.619Z,932.11
2018-11-07T10:07:21.559Z,932.07
2018-11-07T10:08:21.754Z,932.09
2018-11-07T10:09:21.466Z,932.15
2018-11-07T10:10:21.409Z,932.11
2018-11-07T10:11:21.365Z,932.12
2018-11-07T10:12:21.352Z,932.12
2018-11-07T10:13:21.269Z,932.11
2018-11-07T10:14:21.476Z,932.14
2018-11-07T10:15:21.186Z,932.13
2018-11-07T10:16:21.129Z,932.16
2018-11-07T10:17:21.084Z,932.15
2018-11-07T10:18:21.037Z,932.13
2018-11-07T10:19:20.994Z,932.15
2018-11-07T10:20:21.245Z,932.21
2018-11-07T10:21:20.896Z,932.25
2018-11-07T10:22:20.852Z,932.25
2018-11-07T10:23:20.805Z,932.27
2018-11-07T10:24:20.754Z,932.26
2018-11-07T10:25:20.709Z,932.30
2018-11-07T10:26:20.914Z,932.31
2018-11-07T10:27:21.304Z,932.31
2018-11-07T10:28:20.758Z,932.32
2018-11-07T10:29:20.859Z,932.30
2018-11-07T10:30:20.706Z,932.32
2018-11-07T10:31:20.432Z,932.36
2018-11-07T10:32:20.634Z,932.36
2018-11-07T10:33:20.341Z,932.38
2018-11-07T10:34:20.293Z,932.38
2018-11-07T10:35:20.247Z,932.37
2018-11-07T10:36:20.204Z,932.41
2018-11-07T10:37:32.140Z,932.37
2018-11-07T10:38:20.431Z,932.39
2018-11-07T10:39:20.054Z,932.41
2018-11-07T10:40:20.011Z,932.41
2018-11-07T10:41:19.961Z,932.40
2018-11-07T10:42:19.919Z,932.45
2018-11-07T10:43:19.870Z,932.46
2018-11-07T10:44:20.257Z,932.44
2018-11-07T10:45:19.779Z,932.46
2018-11-07T10:46:19.727Z,932.48
2018-11-07T10:47:19.686Z,932.49
2018-11-07T10:48:19.634Z,932.47
2018-11-07T10:49:19.594Z,932.50
2018-11-07T10:50:19.795Z,932.48
2018-11-07T10:51:19.519Z,932.48
2018-11-07T10:52:19.453Z,932.48
2018-11-07T10:53:19.413Z,932.51
2018-11-07T10:54:19.356Z,932.53
2018-11-07T10:55:19.316Z,932.56
2018-11-07T10:56:19.568Z,932.60
2018-11-07T10:57:19.226Z,932.60
2018-11-07T10:58:19.167Z,932.62
2018-11-07T10:59:19.120Z,932.64
2018-11-07T11:00:19.074Z,932.63
2018-11-07T11:01:19.063Z,932.63
2018-11-07T11:02:19.231Z,932.67
2018-11-07T11:03:18.934Z,932.70
2018-11-07T11:04:18.909Z,932.67
2018-11-07T11:05:19.392Z,932.64
2018-11-07T11:06:18.797Z,932.68
2018-11-07T11:07:18.749Z,932.68
2018-11-07T11:08:18.965Z,932.68
2018-11-07T11:09:18.663Z,932.66
2018-11-07T11:10:18.610Z,932.69
2018-11-07T11:11:18.581Z,932.71
2018-11-07T11:12:18.517Z,932.74
2018-11-07T11:13:18.475Z,932.72
2018-11-07T11:14:18.676Z,932.74
2018-11-07T11:15:18.376Z,932.74
2018-11-07T11:16:18.334Z,932.79
2018-11-07T11:17:18.432Z,932.78
2018-11-07T11:18:18.241Z,932.76
2018-11-07T11:19:18.190Z,932.77
2018-11-07T11:20:18.396Z,932.83
2018-11-07T11:21:18.103Z,932.78
2018-11-07T11:22:18.051Z,932.86
2018-11-07T11:23:18.009Z,932.79
2018-11-07T11:24:17.962Z,932.86
2018-11-07T11:25:17.912Z,932.91
2018-11-07T11:26:18.171Z,932.91
2018-11-07T11:27:17.897Z,932.89
2018-11-07T11:28:17.778Z,932.93
2018-11-07T11:29:17.731Z,932.92
2018-11-07T11:30:17.681Z,932.95
2018-11-07T11:31:17.639Z,932.98
2018-11-07T11:32:17.845Z,932.97
2018-11-07T11:33:17.547Z,933.05
2018-11-07T11:34:17.636Z,933.04
2018-11-07T11:35:17.653Z,933.05
2018-11-07T11:36:17.409Z,933.08
2018-11-07T11:37:17.863Z,933.09
2018-11-07T11:38:17.610Z,933.06
2018-11-07T11:39:17.267Z,933.07
2018-11-07T11:40:17.218Z,933.04
2018-11-07T11:41:17.233Z,933.08
2018-11-07T11:42:17.139Z,933.11
2018-11-07T11:43:17.077Z,933.12
2018-11-07T11:44:17.337Z,933.10
2018-11-07T11:45:16.986Z,933.13
2018-11-07T11:46:16.945Z,933.13
2018-11-07T11:47:16.900Z,933.13
2018-11-07T11:48:16.848Z,933.14
2018-11-07T11:49:16.890Z,933.07
2018-11-07T11:50:17.075Z,933.07
2018-11-07T11:51:16.746Z,933.13
2018-11-07T11:52:16.667Z,933.11
2018-11-07T11:53:16.617Z,933.05
2018-11-07T12:01:11.511Z,933.16
2018-11-07T12:02:11.312Z,933.14
2018-11-07T12:03:11.256Z,933.18
2018-11-07T12:04:11.207Z,933.21
2018-11-07T12:05:11.162Z,933.21
2018-11-07T12:06:11.116Z,933.21
2018-11-07T12:07:11.346Z,933.18
2018-11-07T12:08:11.053Z,933.15
2018-11-07T12:09:10.992Z,933.21
2018-11-07T12:10:10.959Z,933.16
2018-11-07T12:11:10.903Z,933.14
2018-11-07T12:12:10.873Z,933.17
2018-11-07T12:13:11.108Z,933.17
2018-11-07T12:14:10.767Z,933.19
2018-11-07T12:15:10.784Z,933.23
2018-11-07T12:16:10.675Z,933.24
2018-11-07T12:17:10.623Z,933.26
2018-11-07T12:18:10.576Z,933.27
2018-11-07T12:19:10.789Z,933.30
2018-11-07T12:20:10.493Z,933.27
2018-11-07T12:21:10.493Z,933.30
2018-11-07T12:22:10.400Z,933.30
2018-11-07T12:23:10.350Z,933.25
2018-11-07T12:24:10.303Z,933.27
2018-11-07T12:25:10.550Z,933.29
2018-11-07T12:26:10.213Z,933.31
2018-11-07T12:27:10.175Z,933.27
2018-11-07T12:28:10.131Z,933.26
2018-11-07T12:29:10.063Z,933.23
2018-11-07T12:30:10.019Z,933.21
2018-11-07T12:31:10.302Z,933.26
2018-11-07T12:32:09.928Z,933.24
2018-11-07T12:33:09.898Z,933.25
2018-11-07T12:34:09.838Z,933.24
2018-11-07T12:35:09.800Z,933.25
2018-11-07T12:36:09.802Z,933.26